sensor_id;sensor_type;location;lat;lon;timestamp;temperature;humidity
50544;DHT22;41176;44.032;20.900;2024-01-30T00:01:54;0.00;99.90
50544;DHT22;41176;44.032;20.900;2024-01-30T00:04:19;0.10;99.90
50544;DHT22;41176;44.032;20.900;2024-01-30T00:06:45;0.20;99.90
50544;DHT22;41176;44.032;20.900;2024-01-30T00:09:11;0.20;99.90
50544;DHT22;41176;44.032;20.900;2024-01-30T00:11:37;0.20;99.90
50544;DHT22;41176;44.032;20.900;2024-01-30T00:14:03;0.20;99.90
50544;DHT22;41176;44.032;20.900;2024-01-30T00:16:29;0.20;99.90
50544;DHT22;41176;44.032;20.900;2024-01-30T00:18:55;0.20;99.90
50544;DHT22;41176;44.032;20.900;2024-01-30T00:21:21;0.20;99.90
50544;DHT22;41176;44.032;20.900;2024-01-30T00:23:47;0.10;99.90
50544;DHT22;41176;44.032;20.900;2024-01-30T00:26:13;0.20;99.90
50544;DHT22;41176;44.032;20.900;2024-01-30T00:28:41;0.10;99.90
50544;DHT22;41176;44.032;20.900;2024-01-30T00:31:07;0.10;99.90
50544;DHT22;41176;44.032;20.900;2024-01-30T00:33:32;0.10;99.90
50544;DHT22;41176;44.032;20.900;2024-01-30T00:35:58;0.10;99.90
50544;DHT22;41176;44.032;20.900;2024-01-30T00:38:24;0.10;99.90
50544;DHT22;41176;44.032;20.900;2024-01-30T00:40:50;0.10;99.90
50544;DHT22;41176;44.032;20.900;2024-01-30T00:43:16;0.10;99.90
50544;DHT22;41176;44.032;20.900;2024-01-30T00:45:43;0.00;99.90
50544;DHT22;41176;44.032;20.900;2024-01-30T00:48:09;-0.20;99.90
50544;DHT22;41176;44.032;20.900;2024-01-30T00:50:35;-0.30;99.90
50544;DHT22;41176;44.032;20.900;2024-01-30T00:53:01;-0.40;99.90
50544;DHT22;41176;44.032;20.900;2024-01-30T00:55:26;-0.40;99.90
50544;DHT22;41176;44.032;20.900;2024-01-30T00:57:52;-0.50;99.90
50544;DHT22;41176;44.032;20.900;2024-01-30T01:00:18;-0.50;99.90
50544;DHT22;41176;44.032;20.900;2024-01-30T01:02:44;-0.50;99.90
50544;DHT22;41176;44.032;20.900;2024-01-30T01:05:10;-0.40;99.90
50544;DHT22;41176;44.032;20.900;2024-01-30T01:07:36;-0.30;99.90
50544;DHT22;41176;44.032;20.900;2024-01-30T01:10:02;-0.20;99.90
50544;DHT22;41176;44.032;20.900;2024-01-30T01:12:29;-0.20;99.90
50544;DHT22;41176;44.032;20.900;2024-01-30T01:14:55;-0.20;99.90
50544;DHT22;41176;44.032;20.900;2024-01-30T01:17:21;-0.20;99.90
50544;DHT22;41176;44.032;20.900;2024-01-30T01:19:46;-0.20;99.90
50544;DHT22;41176;44.032;20.900;2024-01-30T01:22:12;-0.20;99.90
50544;DHT22;41176;44.032;20.900;2024-01-30T01:24:38;-0.10;99.90
50544;DHT22;41176;44.032;20.900;2024-01-30T01:27:05;-0.20;99.90
50544;DHT22;41176;44.032;20.900;2024-01-30T01:29:31;-0.30;99.90
50544;DHT22;41176;44.032;20.900;2024-01-30T01:31:58;-0.20;99.90
50544;DHT22;41176;44.032;20.900;2024-01-30T01:34:24;-0.20;99.90
50544;DHT22;41176;44.032;20.900;2024-01-30T01:36:50;-0.20;99.90
50544;DHT22;41176;44.032;20.900;2024-01-30T01:39:16;-0.20;99.90
50544;DHT22;41176;44.032;20.900;2024-01-30T01:41:42;-0.20;99.90
50544;DHT22;41176;44.032;20.900;2024-01-30T01:44:08;-0.30;99.90
50544;DHT22;41176;44.032;20.900;2024-01-30T01:46:34;-0.40;99.90
50544;DHT22;41176;44.032;20.900;2024-01-30T01:49:04;-0.60;99.90
50544;DHT22;41176;44.032;20.900;2024-01-30T01:51:33;-0.70;99.90
50544;DHT22;41176;44.032;20.900;2024-01-30T01:54:03;-0.70;99.90
50544;DHT22;41176;44.032;20.900;2024-01-30T01:56:29;-0.60;99.90
50544;DHT22;41176;44.032;20.900;2024-01-30T01:59:00;-0.60;99.90
50544;DHT22;41176;44.032;20.900;2024-01-30T02:01:29;-0.40;99.90
50544;DHT22;41176;44.032;20.900;2024-01-30T02:03:56;-0.40;99.90
50544;DHT22;41176;44.032;20.900;2024-01-30T02:06:22;-0.40;99.90
50544;DHT22;41176;44.032;20.900;2024-01-30T02:08:48;-0.30;99.90
50544;DHT22;41176;44.032;20.900;2024-01-30T02:11:14;-0.30;99.90
50544;DHT22;41176;44.032;20.900;2024-01-30T02:13:42;-0.40;99.90
50544;DHT22;41176;44.032;20.900;2024-01-30T02:16:08;-0.60;99.90
50544;DHT22;41176;44.032;20.900;2024-01-30T02:18:33;-0.70;99.90
50544;DHT22;41176;44.032;20.900;2024-01-30T02:21:04;-0.70;99.90
50544;DHT22;41176;44.032;20.900;2024-01-30T02:23:30;-0.70;99.90
50544;DHT22;41176;44.032;20.900;2024-01-30T02:25:56;-0.80;99.90
50544;DHT22;41176;44.032;20.900;2024-01-30T02:28:22;-0.80;99.90
50544;DHT22;41176;44.032;20.900;2024-01-30T02:30:47;-0.80;99.90
50544;DHT22;41176;44.032;20.900;2024-01-30T02:33:13;-0.60;99.90
50544;DHT22;41176;44.032;20.900;2024-01-30T02:35:39;-0.60;99.90
50544;DHT22;41176;44.032;20.900;2024-01-30T02:38:05;-0.60;99.90
50544;DHT22;41176;44.032;20.900;2024-01-30T02:40:31;-0.60;99.90
50544;DHT22;41176;44.032;20.900;2024-01-30T02:42:59;-0.50;99.90
50544;DHT22;41176;44.032;20.900;2024-01-30T02:45:25;-0.50;99.90
50544;DHT22;41176;44.032;20.900;2024-01-30T02:47:51;-0.40;99.90
50544;DHT22;41176;44.032;20.900;2024-01-30T02:50:17;-0.40;99.90
50544;DHT22;41176;44.032;20.900;2024-01-30T02:52:43;-0.40;99.90
50544;DHT22;41176;44.032;20.900;2024-01-30T02:55:12;-0.40;99.90
50544;DHT22;41176;44.032;20.900;2024-01-30T02:57:38;-0.40;99.90
50544;DHT22;41176;44.032;20.900;2024-01-30T03:00:05;-0.30;99.90
50544;DHT22;41176;44.032;20.900;2024-01-30T03:02:32;-0.30;99.90
50544;DHT22;41176;44.032;20.900;2024-01-30T03:04:59;-0.30;99.90
50544;DHT22;41176;44.032;20.900;2024-01-30T03:07:25;-0.30;99.90
50544;DHT22;41176;44.032;20.900;2024-01-30T03:09:51;-0.40;99.90
50544;DHT22;41176;44.032;20.900;2024-01-30T03:12:17;-0.40;99.90
50544;DHT22;41176;44.032;20.900;2024-01-30T03:14:42;-0.40;99.90
50544;DHT22;41176;44.032;20.900;2024-01-30T03:17:08;-0.40;99.90
50544;DHT22;41176;44.032;20.900;2024-01-30T03:19:34;-0.40;99.90
50544;DHT22;41176;44.032;20.900;2024-01-30T03:22:00;-0.40;99.90
50544;DHT22;41176;44.032;20.900;2024-01-30T03:24:25;-0.40;99.90
50544;DHT22;41176;44.032;20.900;2024-01-30T03:26:51;-0.50;99.90
50544;DHT22;41176;44.032;20.900;2024-01-30T03:29:17;-0.70;99.90
50544;DHT22;41176;44.032;20.900;2024-01-30T03:31:43;-0.80;99.90
50544;DHT22;41176;44.032;20.900;2024-01-30T03:34:09;-0.90;99.90
50544;DHT22;41176;44.032;20.900;2024-01-30T03:36:34;-1.00;99.90
50544;DHT22;41176;44.032;20.900;2024-01-30T03:39:01;-1.10;99.90
50544;DHT22;41176;44.032;20.900;2024-01-30T03:41:27;-1.10;99.90
50544;DHT22;41176;44.032;20.900;2024-01-30T03:43:52;-1.10;99.90
50544;DHT22;41176;44.032;20.900;2024-01-30T03:46:18;-1.00;99.90
50544;DHT22;41176;44.032;20.900;2024-01-30T03:48:45;-1.00;99.90
50544;DHT22;41176;44.032;20.900;2024-01-30T03:51:11;-1.00;99.90
50544;DHT22;41176;44.032;20.900;2024-01-30T03:53:40;-1.00;99.90
50544;DHT22;41176;44.032;20.900;2024-01-30T03:56:07;-1.00;99.90
50544;DHT22;41176;44.032;20.900;2024-01-30T03:58:33;-1.00;99.90
50544;DHT22;41176;44.032;20.900;2024-01-30T04:00:59;-1.00;99.90
50544;DHT22;41176;44.032;20.900;2024-01-30T04:03:25;-1.00;99.90
50544;DHT22;41176;44.032;20.900;2024-01-30T04:05:54;-1.10;99.90
50544;DHT22;41176;44.032;20.900;2024-01-30T04:08:19;-1.10;99.90
50544;DHT22;41176;44.032;20.900;2024-01-30T04:10:46;-1.10;99.90
50544;DHT22;41176;44.032;20.900;2024-01-30T04:13:12;-1.10;99.90
50544;DHT22;41176;44.032;20.900;2024-01-30T04:15:38;-1.10;99.90
50544;DHT22;41176;44.032;20.900;2024-01-30T04:18:04;-1.10;99.90
50544;DHT22;41176;44.032;20.900;2024-01-30T04:20:30;-1.20;99.90
50544;DHT22;41176;44.032;20.900;2024-01-30T04:22:56;-1.10;99.90
50544;DHT22;41176;44.032;20.900;2024-01-30T04:25:21;-1.10;99.90
50544;DHT22;41176;44.032;20.900;2024-01-30T04:27:47;-1.20;99.90
50544;DHT22;41176;44.032;20.900;2024-01-30T04:30:14;-1.20;99.90
50544;DHT22;41176;44.032;20.900;2024-01-30T04:32:40;-1.20;99.90
50544;DHT22;41176;44.032;20.900;2024-01-30T04:35:06;-1.20;99.90
50544;DHT22;41176;44.032;20.900;2024-01-30T04:37:31;-1.10;99.90
50544;DHT22;41176;44.032;20.900;2024-01-30T04:39:57;-1.20;99.90
50544;DHT22;41176;44.032;20.900;2024-01-30T04:42:23;-1.10;99.90
50544;DHT22;41176;44.032;20.900;2024-01-30T04:44:49;-1.20;99.90
50544;DHT22;41176;44.032;20.900;2024-01-30T04:47:15;-1.20;99.90
50544;DHT22;41176;44.032;20.900;2024-01-30T04:49:42;-1.20;99.90
50544;DHT22;41176;44.032;20.900;2024-01-30T04:52:08;-1.20;99.90
50544;DHT22;41176;44.032;20.900;2024-01-30T04:54:35;-1.20;99.90
50544;DHT22;41176;44.032;20.900;2024-01-30T04:57:01;-1.20;99.90
50544;DHT22;41176;44.032;20.900;2024-01-30T04:59:27;-1.40;99.90
50544;DHT22;41176;44.032;20.900;2024-01-30T05:01:53;-1.50;99.90
50544;DHT22;41176;44.032;20.900;2024-01-30T05:04:19;-1.60;99.90
50544;DHT22;41176;44.032;20.900;2024-01-30T05:06:44;-1.70;99.90
50544;DHT22;41176;44.032;20.900;2024-01-30T05:09:10;-1.90;99.90
50544;DHT22;41176;44.032;20.900;2024-01-30T05:11:37;-1.90;99.90
50544;DHT22;41176;44.032;20.900;2024-01-30T05:14:04;-1.90;99.90
50544;DHT22;41176;44.032;20.900;2024-01-30T05:16:30;-1.90;99.90
50544;DHT22;41176;44.032;20.900;2024-01-30T05:18:55;-1.90;99.90
50544;DHT22;41176;44.032;20.900;2024-01-30T05:21:21;-1.90;99.90
50544;DHT22;41176;44.032;20.900;2024-01-30T05:23:47;-1.90;99.90
50544;DHT22;41176;44.032;20.900;2024-01-30T05:26:12;-1.80;99.90
50544;DHT22;41176;44.032;20.900;2024-01-30T05:28:38;-1.80;99.90
50544;DHT22;41176;44.032;20.900;2024-01-30T05:31:04;-1.70;99.90
50544;DHT22;41176;44.032;20.900;2024-01-30T05:33:29;-1.70;99.90
50544;DHT22;41176;44.032;20.900;2024-01-30T05:35:55;-1.70;99.90
50544;DHT22;41176;44.032;20.900;2024-01-30T05:38:21;-1.70;99.90
50544;DHT22;41176;44.032;20.900;2024-01-30T05:40:47;-1.70;99.90
50544;DHT22;41176;44.032;20.900;2024-01-30T05:43:12;-1.70;99.90
50544;DHT22;41176;44.032;20.900;2024-01-30T05:45:38;-1.70;99.90
50544;DHT22;41176;44.032;20.900;2024-01-30T05:48:04;-1.70;99.90
50544;DHT22;41176;44.032;20.900;2024-01-30T05:50:31;-1.70;99.90
50544;DHT22;41176;44.032;20.900;2024-01-30T05:52:56;-1.60;99.90
50544;DHT22;41176;44.032;20.900;2024-01-30T05:55:22;-1.50;99.90
50544;DHT22;41176;44.032;20.900;2024-01-30T05:57:48;-1.50;99.90
50544;DHT22;41176;44.032;20.900;2024-01-30T06:00:14;-1.50;99.90
50544;DHT22;41176;44.032;20.900;2024-01-30T06:02:40;-1.50;99.90
50544;DHT22;41176;44.032;20.900;2024-01-30T06:05:05;-1.40;99.90
50544;DHT22;41176;44.032;20.900;2024-01-30T06:07:31;-1.50;99.90
50544;DHT22;41176;44.032;20.900;2024-01-30T06:09:57;-1.40;99.90
50544;DHT22;41176;44.032;20.900;2024-01-30T06:12:23;-1.40;99.90
50544;DHT22;41176;44.032;20.900;2024-01-30T06:14:49;-1.40;99.90
50544;DHT22;41176;44.032;20.900;2024-01-30T06:17:14;-1.40;99.90
50544;DHT22;41176;44.032;20.900;2024-01-30T06:19:40;-1.40;99.90
50544;DHT22;41176;44.032;20.900;2024-01-30T06:22:07;-1.40;99.90
50544;DHT22;41176;44.032;20.900;2024-01-30T06:24:32;-1.30;99.90
50544;DHT22;41176;44.032;20.900;2024-01-30T06:26:59;-1.30;99.90
50544;DHT22;41176;44.032;20.900;2024-01-30T06:29:26;-1.30;99.90
50544;DHT22;41176;44.032;20.900;2024-01-30T06:31:52;-1.30;99.90
50544;DHT22;41176;44.032;20.900;2024-01-30T06:34:18;-1.20;99.90
50544;DHT22;41176;44.032;20.900;2024-01-30T06:36:44;-1.10;99.90
50544;DHT22;41176;44.032;20.900;2024-01-30T06:39:10;-1.10;99.90
50544;DHT22;41176;44.032;20.900;2024-01-30T06:41:35;-1.10;99.90
50544;DHT22;41176;44.032;20.900;2024-01-30T06:44:04;-1.00;99.90
50544;DHT22;41176;44.032;20.900;2024-01-30T06:46:32;-1.00;99.90
50544;DHT22;41176;44.032;20.900;2024-01-30T06:48:58;-0.90;99.90
50544;DHT22;41176;44.032;20.900;2024-01-30T06:51:24;-0.80;99.90
50544;DHT22;41176;44.032;20.900;2024-01-30T06:53:49;-0.70;99.90
50544;DHT22;41176;44.032;20.900;2024-01-30T06:56:16;-0.50;99.90
50544;DHT22;41176;44.032;20.900;2024-01-30T06:58:47;-0.40;99.90
50544;DHT22;41176;44.032;20.900;2024-01-30T07:01:12;-0.30;99.90
50544;DHT22;41176;44.032;20.900;2024-01-30T07:03:38;-0.30;99.90
50544;DHT22;41176;44.032;20.900;2024-01-30T07:06:04;-0.20;99.90
50544;DHT22;41176;44.032;20.900;2024-01-30T07:08:30;-0.10;99.90
50544;DHT22;41176;44.032;20.900;2024-01-30T07:10:56;0.00;99.90
50544;DHT22;41176;44.032;20.900;2024-01-30T07:13:22;0.00;99.90
50544;DHT22;41176;44.032;20.900;2024-01-30T07:15:47;0.00;99.90
50544;DHT22;41176;44.032;20.900;2024-01-30T07:18:13;0.10;99.90
50544;DHT22;41176;44.032;20.900;2024-01-30T07:20:39;0.30;99.90
50544;DHT22;41176;44.032;20.900;2024-01-30T07:23:14;0.40;99.90
50544;DHT22;41176;44.032;20.900;2024-01-30T07:25:45;0.50;99.90
50544;DHT22;41176;44.032;20.900;2024-01-30T07:28:14;0.60;99.90
50544;DHT22;41176;44.032;20.900;2024-01-30T07:30:42;0.80;99.90
50544;DHT22;41176;44.032;20.900;2024-01-30T07:33:08;1.00;99.90
50544;DHT22;41176;44.032;20.900;2024-01-30T07:35:34;1.10;99.90
50544;DHT22;41176;44.032;20.900;2024-01-30T07:38:00;1.30;99.90
50544;DHT22;41176;44.032;20.900;2024-01-30T07:40:26;1.40;99.90
50544;DHT22;41176;44.032;20.900;2024-01-30T07:42:53;1.50;99.90
50544;DHT22;41176;44.032;20.900;2024-01-30T07:45:19;1.60;99.90
50544;DHT22;41176;44.032;20.900;2024-01-30T07:47:50;1.80;99.90
50544;DHT22;41176;44.032;20.900;2024-01-30T07:50:15;1.90;99.90
50544;DHT22;41176;44.032;20.900;2024-01-30T07:52:45;2.10;99.90
50544;DHT22;41176;44.032;20.900;2024-01-30T07:55:10;2.20;99.90
50544;DHT22;41176;44.032;20.900;2024-01-30T07:57:39;2.30;99.90
50544;DHT22;41176;44.032;20.900;2024-01-30T08:00:05;2.40;99.90
50544;DHT22;41176;44.032;20.900;2024-01-30T08:02:33;2.60;99.90
50544;DHT22;41176;44.032;20.900;2024-01-30T08:04:58;2.70;99.90
50544;DHT22;41176;44.032;20.900;2024-01-30T08:07:24;2.80;99.90
50544;DHT22;41176;44.032;20.900;2024-01-30T08:09:50;3.00;99.90
50544;DHT22;41176;44.032;20.900;2024-01-30T08:12:16;3.10;99.90
50544;DHT22;41176;44.032;20.900;2024-01-30T08:14:42;3.20;99.90
50544;DHT22;41176;44.032;20.900;2024-01-30T08:17:08;3.30;99.90
50544;DHT22;41176;44.032;20.900;2024-01-30T08:19:33;3.50;99.90
50544;DHT22;41176;44.032;20.900;2024-01-30T08:21:59;3.60;99.90
50544;DHT22;41176;44.032;20.900;2024-01-30T08:24:25;3.70;99.90
50544;DHT22;41176;44.032;20.900;2024-01-30T08:26:51;3.80;99.90
50544;DHT22;41176;44.032;20.900;2024-01-30T08:29:17;4.00;99.90
50544;DHT22;41176;44.032;20.900;2024-01-30T08:31:42;4.20;99.90
50544;DHT22;41176;44.032;20.900;2024-01-30T08:34:08;4.30;99.90
50544;DHT22;41176;44.032;20.900;2024-01-30T08:36:34;4.40;99.90
50544;DHT22;41176;44.032;20.900;2024-01-30T08:38:59;4.60;99.90
50544;DHT22;41176;44.032;20.900;2024-01-30T08:41:25;4.80;99.90
50544;DHT22;41176;44.032;20.900;2024-01-30T08:43:52;5.10;99.90
50544;DHT22;41176;44.032;20.900;2024-01-30T08:46:18;5.30;99.90
50544;DHT22;41176;44.032;20.900;2024-01-30T08:48:44;5.60;99.90
50544;DHT22;41176;44.032;20.900;2024-01-30T08:51:10;6.00;99.90
50544;DHT22;41176;44.032;20.900;2024-01-30T08:53:36;7.30;97.90
50544;DHT22;41176;44.032;20.900;2024-01-30T08:56:03;9.30;91.40
50544;DHT22;41176;44.032;20.900;2024-01-30T08:58:29;11.30;81.50
50544;DHT22;41176;44.032;20.900;2024-01-30T09:00:55;13.20;73.20
50544;DHT22;41176;44.032;20.900;2024-01-30T09:03:21;14.90;65.30
50544;DHT22;41176;44.032;20.900;2024-01-30T09:05:46;16.20;61.00
50544;DHT22;41176;44.032;20.900;2024-01-30T09:08:12;17.20;55.90
50544;DHT22;41176;44.032;20.900;2024-01-30T09:10:38;18.30;55.80
50544;DHT22;41176;44.032;20.900;2024-01-30T09:13:04;18.90;52.40
50544;DHT22;41176;44.032;20.900;2024-01-30T09:15:29;19.50;49.40
50544;DHT22;41176;44.032;20.900;2024-01-30T09:17:55;20.00;49.00
50544;DHT22;41176;44.032;20.900;2024-01-30T09:20:21;20.70;46.70
50544;DHT22;41176;44.032;20.900;2024-01-30T09:22:48;21.30;46.40
50544;DHT22;41176;44.032;20.900;2024-01-30T09:25:15;21.80;44.80
50544;DHT22;41176;44.032;20.900;2024-01-30T09:27:40;22.20;42.50
50544;DHT22;41176;44.032;20.900;2024-01-30T09:30:07;22.50;42.70
50544;DHT22;41176;44.032;20.900;2024-01-30T09:32:32;22.50;41.90
50544;DHT22;41176;44.032;20.900;2024-01-30T09:34:58;22.60;42.00
50544;DHT22;41176;44.032;20.900;2024-01-30T09:37:24;22.80;42.50
50544;DHT22;41176;44.032;20.900;2024-01-30T09:39:50;22.80;41.90
50544;DHT22;41176;44.032;20.900;2024-01-30T09:42:35;23.20;42.50
50544;DHT22;41176;44.032;20.900;2024-01-30T09:45:05;23.50;40.40
50544;DHT22;41176;44.032;20.900;2024-01-30T09:47:41;23.70;40.80
50544;DHT22;41176;44.032;20.900;2024-01-30T09:50:09;23.70;39.90
50544;DHT22;41176;44.032;20.900;2024-01-30T09:52:35;23.70;39.30
50544;DHT22;41176;44.032;20.900;2024-01-30T09:55:02;23.80;40.30
50544;DHT22;41176;44.032;20.900;2024-01-30T09:57:28;23.30;39.40
50544;DHT22;41176;44.032;20.900;2024-01-30T09:59:54;23.30;39.40
50544;DHT22;41176;44.032;20.900;2024-01-30T10:02:20;23.40;38.40
50544;DHT22;41176;44.032;20.900;2024-01-30T10:04:48;23.40;39.00
50544;DHT22;41176;44.032;20.900;2024-01-30T10:07:15;22.90;38.20
50544;DHT22;41176;44.032;20.900;2024-01-30T10:09:41;22.40;38.20
50544;DHT22;41176;44.032;20.900;2024-01-30T10:12:08;21.40;37.80
50544;DHT22;41176;44.032;20.900;2024-01-30T10:14:37;20.70;39.60
50544;DHT22;41176;44.032;20.900;2024-01-30T10:17:03;18.70;39.40
50544;DHT22;41176;44.032;20.900;2024-01-30T10:19:31;17.20;41.40
50544;DHT22;41176;44.032;20.900;2024-01-30T10:21:57;15.80;42.90
50544;DHT22;41176;44.032;20.900;2024-01-30T10:24:26;15.80;44.20
50544;DHT22;41176;44.032;20.900;2024-01-30T10:26:53;15.00;44.90
50544;DHT22;41176;44.032;20.900;2024-01-30T10:29:19;14.10;45.80
50544;DHT22;41176;44.032;20.900;2024-01-30T10:31:45;13.20;47.10
50544;DHT22;41176;44.032;20.900;2024-01-30T10:34:10;13.00;48.20
50544;DHT22;41176;44.032;20.900;2024-01-30T10:36:50;12.60;47.50
50544;DHT22;41176;44.032;20.900;2024-01-30T10:39:17;12.10;48.50
50544;DHT22;41176;44.032;20.900;2024-01-30T10:41:44;11.60;48.80
50544;DHT22;41176;44.032;20.900;2024-01-30T10:44:11;11.60;49.40
50544;DHT22;41176;44.032;20.900;2024-01-30T10:46:41;11.50;50.50
50544;DHT22;41176;44.032;20.900;2024-01-30T10:49:08;11.00;50.80
50544;DHT22;41176;44.032;20.900;2024-01-30T10:51:34;10.80;50.90
50544;DHT22;41176;44.032;20.900;2024-01-30T10:54:03;10.80;51.40
50544;DHT22;41176;44.032;20.900;2024-01-30T10:56:32;10.70;50.20
50544;DHT22;41176;44.032;20.900;2024-01-30T10:58:59;10.60;51.30
50544;DHT22;41176;44.032;20.900;2024-01-30T11:01:25;10.30;51.00
50544;DHT22;41176;44.032;20.900;2024-01-30T11:03:52;10.00;51.40
50544;DHT22;41176;44.032;20.900;2024-01-30T11:06:22;10.20;54.30
50544;DHT22;41176;44.032;20.900;2024-01-30T11:09:04;10.40;51.70
50544;DHT22;41176;44.032;20.900;2024-01-30T11:11:51;10.50;52.00
50544;DHT22;41176;44.032;20.900;2024-01-30T11:14:23;10.40;50.90
50544;DHT22;41176;44.032;20.900;2024-01-30T11:16:49;10.30;51.70
50544;DHT22;41176;44.032;20.900;2024-01-30T11:19:15;10.00;51.70
50544;DHT22;41176;44.032;20.900;2024-01-30T11:21:44;9.80;51.90
50544;DHT22;41176;44.032;20.900;2024-01-30T11:24:09;9.80;51.90
50544;DHT22;41176;44.032;20.900;2024-01-30T11:26:35;9.70;52.10
50544;DHT22;41176;44.032;20.900;2024-01-30T11:29:06;9.80;51.60
50544;DHT22;41176;44.032;20.900;2024-01-30T11:31:32;9.70;53.00
50544;DHT22;41176;44.032;20.900;2024-01-30T11:33:58;9.80;52.90
50544;DHT22;41176;44.032;20.900;2024-01-30T11:36:25;9.90;52.60
50544;DHT22;41176;44.032;20.900;2024-01-30T11:38:52;10.00;51.90
50544;DHT22;41176;44.032;20.900;2024-01-30T11:41:19;10.00;52.10
50544;DHT22;41176;44.032;20.900;2024-01-30T11:43:52;9.70;53.30
50544;DHT22;41176;44.032;20.900;2024-01-30T11:46:18;9.80;52.20
50544;DHT22;41176;44.032;20.900;2024-01-30T11:48:44;9.80;52.60
50544;DHT22;41176;44.032;20.900;2024-01-30T11:51:11;10.00;51.60
50544;DHT22;41176;44.032;20.900;2024-01-30T11:53:37;10.00;52.10
50544;DHT22;41176;44.032;20.900;2024-01-30T11:56:08;10.10;52.30
50544;DHT22;41176;44.032;20.900;2024-01-30T11:58:34;10.30;52.50
50544;DHT22;41176;44.032;20.900;2024-01-30T12:01:00;10.50;51.80
50544;DHT22;41176;44.032;20.900;2024-01-30T12:03:26;10.70;52.00
50544;DHT22;41176;44.032;20.900;2024-01-30T12:05:56;10.90;53.60
50544;DHT22;41176;44.032;20.900;2024-01-30T12:08:22;11.00;52.20
50544;DHT22;41176;44.032;20.900;2024-01-30T12:10:58;11.00;52.70
50544;DHT22;41176;44.032;20.900;2024-01-30T12:13:25;11.20;51.90
50544;DHT22;41176;44.032;20.900;2024-01-30T12:15:51;11.30;51.60
50544;DHT22;41176;44.032;20.900;2024-01-30T12:18:20;11.40;49.40
50544;DHT22;41176;44.032;20.900;2024-01-30T12:20:57;11.30;49.90
50544;DHT22;41176;44.032;20.900;2024-01-30T12:23:24;11.50;51.40
50544;DHT22;41176;44.032;20.900;2024-01-30T12:25:51;12.00;49.30
50544;DHT22;41176;44.032;20.900;2024-01-30T12:28:17;13.50;48.70
50544;DHT22;41176;44.032;20.900;2024-01-30T12:30:43;15.10;46.30
50544;DHT22;41176;44.032;20.900;2024-01-30T12:33:09;15.80;44.20
50544;DHT22;41176;44.032;20.900;2024-01-30T12:35:35;15.80;43.30
50544;DHT22;41176;44.032;20.900;2024-01-30T12:38:02;15.50;43.20
50544;DHT22;41176;44.032;20.900;2024-01-30T12:40:28;15.70;44.30
50544;DHT22;41176;44.032;20.900;2024-01-30T12:42:54;15.90;42.40
50544;DHT22;41176;44.032;20.900;2024-01-30T12:45:19;16.00;42.70
50544;DHT22;41176;44.032;20.900;2024-01-30T12:47:47;16.10;42.10
50544;DHT22;41176;44.032;20.900;2024-01-30T12:50:13;15.70;43.00
50544;DHT22;41176;44.032;20.900;2024-01-30T12:52:42;15.80;44.00
50544;DHT22;41176;44.032;20.900;2024-01-30T12:55:08;15.60;42.60
50544;DHT22;41176;44.032;20.900;2024-01-30T12:57:34;15.60;43.10
50544;DHT22;41176;44.032;20.900;2024-01-30T13:00:00;15.70;42.70
50544;DHT22;41176;44.032;20.900;2024-01-30T13:02:26;15.60;42.70
50544;DHT22;41176;44.032;20.900;2024-01-30T13:04:55;15.50;42.60
50544;DHT22;41176;44.032;20.900;2024-01-30T13:07:21;15.70;43.40
50544;DHT22;41176;44.032;20.900;2024-01-30T13:09:47;16.00;41.90
50544;DHT22;41176;44.032;20.900;2024-01-30T13:12:13;15.90;41.60
50544;DHT22;41176;44.032;20.900;2024-01-30T13:14:38;15.40;42.00
50544;DHT22;41176;44.032;20.900;2024-01-30T13:17:04;15.30;42.20
50544;DHT22;41176;44.032;20.900;2024-01-30T13:19:30;15.30;42.60
50544;DHT22;41176;44.032;20.900;2024-01-30T13:21:56;15.10;41.60
50544;DHT22;41176;44.032;20.900;2024-01-30T13:24:21;14.80;42.20
50544;DHT22;41176;44.032;20.900;2024-01-30T13:26:47;14.90;43.40
50544;DHT22;41176;44.032;20.900;2024-01-30T13:29:14;14.90;42.50
50544;DHT22;41176;44.032;20.900;2024-01-30T13:31:40;14.80;41.60
50544;DHT22;41176;44.032;20.900;2024-01-30T13:34:06;14.70;42.80
50544;DHT22;41176;44.032;20.900;2024-01-30T13:36:34;14.80;42.90
50544;DHT22;41176;44.032;20.900;2024-01-30T13:39:00;14.40;43.60
50544;DHT22;41176;44.032;20.900;2024-01-30T13:41:26;13.40;43.60
50544;DHT22;41176;44.032;20.900;2024-01-30T13:43:52;12.60;45.70
50544;DHT22;41176;44.032;20.900;2024-01-30T13:46:17;12.00;46.80
50544;DHT22;41176;44.032;20.900;2024-01-30T13:48:43;11.50;46.60
50544;DHT22;41176;44.032;20.900;2024-01-30T13:51:09;11.10;47.70
50544;DHT22;41176;44.032;20.900;2024-01-30T13:53:36;10.80;48.20
50544;DHT22;41176;44.032;20.900;2024-01-30T13:56:02;10.60;48.30
50544;DHT22;41176;44.032;20.900;2024-01-30T13:58:28;10.10;49.50
50544;DHT22;41176;44.032;20.900;2024-01-30T14:00:53;9.70;50.00
50544;DHT22;41176;44.032;20.900;2024-01-30T14:03:19;9.50;50.00
50544;DHT22;41176;44.032;20.900;2024-01-30T14:05:45;9.40;51.50
50544;DHT22;41176;44.032;20.900;2024-01-30T14:08:11;9.40;52.50
50544;DHT22;41176;44.032;20.900;2024-01-30T14:10:37;9.40;51.70
50544;DHT22;41176;44.032;20.900;2024-01-30T14:13:03;9.40;52.40
50544;DHT22;41176;44.032;20.900;2024-01-30T14:15:28;9.40;52.50
50544;DHT22;41176;44.032;20.900;2024-01-30T14:17:54;9.40;52.80
50544;DHT22;41176;44.032;20.900;2024-01-30T14:20:20;9.40;54.00
50544;DHT22;41176;44.032;20.900;2024-01-30T14:22:46;9.40;51.90
50544;DHT22;41176;44.032;20.900;2024-01-30T14:25:11;9.40;52.70
50544;DHT22;41176;44.032;20.900;2024-01-30T14:27:37;9.30;52.50
50544;DHT22;41176;44.032;20.900;2024-01-30T14:30:03;9.50;52.90
50544;DHT22;41176;44.032;20.900;2024-01-30T14:32:29;9.80;52.50
50544;DHT22;41176;44.032;20.900;2024-01-30T14:34:55;10.20;51.20
50544;DHT22;41176;44.032;20.900;2024-01-30T14:37:21;10.50;50.10
50544;DHT22;41176;44.032;20.900;2024-01-30T14:39:47;10.80;50.90
50544;DHT22;41176;44.032;20.900;2024-01-30T14:42:14;11.00;50.40
50544;DHT22;41176;44.032;20.900;2024-01-30T14:44:41;11.10;50.20
50544;DHT22;41176;44.032;20.900;2024-01-30T14:47:07;11.30;49.70
50544;DHT22;41176;44.032;20.900;2024-01-30T14:49:33;11.60;50.30
50544;DHT22;41176;44.032;20.900;2024-01-30T14:51:59;11.60;49.70
50544;DHT22;41176;44.032;20.900;2024-01-30T14:54:26;11.30;50.20
50544;DHT22;41176;44.032;20.900;2024-01-30T14:56:52;11.00;51.40
50544;DHT22;41176;44.032;20.900;2024-01-30T14:59:18;10.60;52.20
50544;DHT22;41176;44.032;20.900;2024-01-30T15:01:44;10.30;52.60
50544;DHT22;41176;44.032;20.900;2024-01-30T15:04:10;10.10;53.20
50544;DHT22;41176;44.032;20.900;2024-01-30T15:06:37;9.90;53.80
50544;DHT22;41176;44.032;20.900;2024-01-30T15:09:03;9.70;54.10
50544;DHT22;41176;44.032;20.900;2024-01-30T15:11:28;9.50;54.60
50544;DHT22;41176;44.032;20.900;2024-01-30T15:13:54;9.30;55.20
50544;DHT22;41176;44.032;20.900;2024-01-30T15:16:20;9.10;55.50